<?xml version="1.0" encoding="UTF-8" standalone="no" ?>
<gpx xmlns="http://www.topografix.com/GPX/1/1" xmlns:xsi="http://www.w3.org/2001/XMLSchema-instance" xsi:schemaLocation="http://www.topografix.com/GPX/1/1 http://www.topografix.com/GPX/1/1/gpx.xsd" version="1.1" creator="VisuGPX - https://www.visugpx.com">
  <metadata>
    <name>Près de la Bourgonce - Col de mon repos</name>
    <desc><![CDATA[sans difficulté]]></desc>
  </metadata>
  <trk>
    <name><![CDATA[Tracé actuel: 23 AVR 2022 17:17]]></name>
    <extensions>
      <line xmlns="http://www.topografix.com/GPX/gpx_style/0/2">
        <color>0000FF</color>
        <width>4</width>
      </line>
    </extensions>
    <trkseg>
      <trkpt lat="48.30111" lon="6.79755">
        <ele>457.72</ele>
        <time>2022-04-23T15:17:57Z</time>
      </trkpt>
      <trkpt lat="48.30082" lon="6.79758">
        <ele>448.11</ele>
        <time>2022-04-23T15:18:14Z</time>
      </trkpt>
      <trkpt lat="48.30059" lon="6.79746">
        <ele>444.27</ele>
        <time>2022-04-23T15:18:28Z</time>
      </trkpt>
      <trkpt lat="48.30039" lon="6.79738">
        <ele>441.86</ele>
        <time>2022-04-23T15:18:46Z</time>
      </trkpt>
      <trkpt lat="48.3002" lon="6.79736">
        <ele>441.86</ele>
        <time>2022-04-23T15:19:02Z</time>
      </trkpt>
      <trkpt lat="48.30019" lon="6.79775">
        <ele>441.38</ele>
        <time>2022-04-23T15:19:51Z</time>
      </trkpt>
      <trkpt lat="48.30036" lon="6.79818">
        <ele>446.19</ele>
        <time>2022-04-23T15:20:19Z</time>
      </trkpt>
      <trkpt lat="48.30055" lon="6.79838">
        <ele>449.07</ele>
        <time>2022-04-23T15:20:35Z</time>
      </trkpt>
      <trkpt lat="48.30093" lon="6.79893">
        <ele>452.92</ele>
        <time>2022-04-23T15:20:59Z</time>
      </trkpt>
      <trkpt lat="48.30106" lon="6.79922">
        <ele>455.32</ele>
        <time>2022-04-23T15:21:12Z</time>
      </trkpt>
      <trkpt lat="48.30116" lon="6.79948">
        <ele>457.24</ele>
        <time>2022-04-23T15:21:25Z</time>
      </trkpt>
      <trkpt lat="48.3012" lon="6.79976">
        <ele>459.65</ele>
        <time>2022-04-23T15:21:38Z</time>
      </trkpt>
      <trkpt lat="48.30115" lon="6.80007">
        <ele>460.61</ele>
        <time>2022-04-23T15:21:51Z</time>
      </trkpt>
      <trkpt lat="48.3011" lon="6.80036">
        <ele>462.53</ele>
        <time>2022-04-23T15:22:05Z</time>
      </trkpt>
      <trkpt lat="48.30107" lon="6.80068">
        <ele>463.97</ele>
        <time>2022-04-23T15:22:19Z</time>
      </trkpt>
      <trkpt lat="48.30106" lon="6.801">
        <ele>466.38</ele>
        <time>2022-04-23T15:22:33Z</time>
      </trkpt>
      <trkpt lat="48.30106" lon="6.80131">
        <ele>468.78</ele>
        <time>2022-04-23T15:22:47Z</time>
      </trkpt>
      <trkpt lat="48.301" lon="6.80169">
        <ele>470.22</ele>
        <time>2022-04-23T15:23:02Z</time>
      </trkpt>
      <trkpt lat="48.3009" lon="6.80202">
        <ele>473.11</ele>
        <time>2022-04-23T15:23:16Z</time>
      </trkpt>
      <trkpt lat="48.30075" lon="6.80228">
        <ele>475.03</ele>
        <time>2022-04-23T15:23:31Z</time>
      </trkpt>
      <trkpt lat="48.30073" lon="6.80265">
        <ele>477.43</ele>
        <time>2022-04-23T15:23:44Z</time>
      </trkpt>
      <trkpt lat="48.30061" lon="6.80292">
        <ele>479.35</ele>
        <time>2022-04-23T15:23:57Z</time>
      </trkpt>
      <trkpt lat="48.30047" lon="6.80316">
        <ele>480.32</ele>
        <time>2022-04-23T15:24:09Z</time>
      </trkpt>
      <trkpt lat="48.3003" lon="6.80327">
        <ele>482.24</ele>
        <time>2022-04-23T15:24:21Z</time>
      </trkpt>
      <trkpt lat="48.30014" lon="6.80326">
        <ele>484.16</ele>
        <time>2022-04-23T15:24:33Z</time>
      </trkpt>
      <trkpt lat="48.29996" lon="6.80323">
        <ele>485.6</ele>
        <time>2022-04-23T15:24:47Z</time>
      </trkpt>
      <trkpt lat="48.29976" lon="6.80315">
        <ele>488.01</ele>
        <time>2022-04-23T15:25:01Z</time>
      </trkpt>
      <trkpt lat="48.29958" lon="6.80308">
        <ele>490.41</ele>
        <time>2022-04-23T15:25:14Z</time>
      </trkpt>
      <trkpt lat="48.29941" lon="6.80294">
        <ele>492.33</ele>
        <time>2022-04-23T15:25:28Z</time>
      </trkpt>
      <trkpt lat="48.2992" lon="6.80273">
        <ele>495.22</ele>
        <time>2022-04-23T15:25:45Z</time>
      </trkpt>
      <trkpt lat="48.29904" lon="6.80251">
        <ele>497.62</ele>
        <time>2022-04-23T15:26:01Z</time>
      </trkpt>
      <trkpt lat="48.29888" lon="6.80224">
        <ele>500.02</ele>
        <time>2022-04-23T15:26:20Z</time>
      </trkpt>
      <trkpt lat="48.29873" lon="6.80202">
        <ele>500.98</ele>
        <time>2022-04-23T15:26:35Z</time>
      </trkpt>
      <trkpt lat="48.29857" lon="6.8018">
        <ele>503.87</ele>
        <time>2022-04-23T15:26:50Z</time>
      </trkpt>
      <trkpt lat="48.29842" lon="6.80158">
        <ele>505.79</ele>
        <time>2022-04-23T15:27:03Z</time>
      </trkpt>
      <trkpt lat="48.29825" lon="6.80141">
        <ele>507.71</ele>
        <time>2022-04-23T15:27:18Z</time>
      </trkpt>
      <trkpt lat="48.29811" lon="6.80112">
        <ele>509.64</ele>
        <time>2022-04-23T15:27:36Z</time>
      </trkpt>
      <trkpt lat="48.29808" lon="6.80075">
        <ele>511.56</ele>
        <time>2022-04-23T15:27:52Z</time>
      </trkpt>
      <trkpt lat="48.29807" lon="6.80041">
        <ele>512.52</ele>
        <time>2022-04-23T15:28:05Z</time>
      </trkpt>
      <trkpt lat="48.29808" lon="6.80007">
        <ele>513.96</ele>
        <time>2022-04-23T15:28:18Z</time>
      </trkpt>
      <trkpt lat="48.29816" lon="6.79978">
        <ele>515.4</ele>
        <time>2022-04-23T15:28:33Z</time>
      </trkpt>
      <trkpt lat="48.29821" lon="6.79946">
        <ele>515.88</ele>
        <time>2022-04-23T15:28:48Z</time>
      </trkpt>
      <trkpt lat="48.29814" lon="6.79915">
        <ele>514.92</ele>
        <time>2022-04-23T15:28:56Z</time>
      </trkpt>
      <trkpt lat="48.29803" lon="6.79886">
        <ele>513.96</ele>
        <time>2022-04-23T15:29:01Z</time>
      </trkpt>
      <trkpt lat="48.2979" lon="6.79856">
        <ele>513</ele>
        <time>2022-04-23T15:29:06Z</time>
      </trkpt>
      <trkpt lat="48.29778" lon="6.79826">
        <ele>513</ele>
        <time>2022-04-23T15:29:11Z</time>
      </trkpt>
      <trkpt lat="48.29768" lon="6.79801">
        <ele>512.52</ele>
        <time>2022-04-23T15:29:15Z</time>
      </trkpt>
      <trkpt lat="48.29753" lon="6.79775">
        <ele>513</ele>
        <time>2022-04-23T15:29:20Z</time>
      </trkpt>
      <trkpt lat="48.29739" lon="6.79749">
        <ele>513</ele>
        <time>2022-04-23T15:29:25Z</time>
      </trkpt>
      <trkpt lat="48.29725" lon="6.79723">
        <ele>512.52</ele>
        <time>2022-04-23T15:29:30Z</time>
      </trkpt>
      <trkpt lat="48.29711" lon="6.79697">
        <ele>512.04</ele>
        <time>2022-04-23T15:29:35Z</time>
      </trkpt>
      <trkpt lat="48.29694" lon="6.79676">
        <ele>512.04</ele>
        <time>2022-04-23T15:29:40Z</time>
      </trkpt>
      <trkpt lat="48.29685" lon="6.79648">
        <ele>512.04</ele>
        <time>2022-04-23T15:29:45Z</time>
      </trkpt>
      <trkpt lat="48.29682" lon="6.79616">
        <ele>511.56</ele>
        <time>2022-04-23T15:29:50Z</time>
      </trkpt>
      <trkpt lat="48.2968" lon="6.79587">
        <ele>511.08</ele>
        <time>2022-04-23T15:29:55Z</time>
      </trkpt>
      <trkpt lat="48.29675" lon="6.79558">
        <ele>510.6</ele>
        <time>2022-04-23T15:30:01Z</time>
      </trkpt>
      <trkpt lat="48.29669" lon="6.79528">
        <ele>510.12</ele>
        <time>2022-04-23T15:30:06Z</time>
      </trkpt>
      <trkpt lat="48.29663" lon="6.79498">
        <ele>510.6</ele>
        <time>2022-04-23T15:30:11Z</time>
      </trkpt>
      <trkpt lat="48.29652" lon="6.79469">
        <ele>510.6</ele>
        <time>2022-04-23T15:30:16Z</time>
      </trkpt>
      <trkpt lat="48.29641" lon="6.79442">
        <ele>509.64</ele>
        <time>2022-04-23T15:30:20Z</time>
      </trkpt>
      <trkpt lat="48.29627" lon="6.7942">
        <ele>508.19</ele>
        <time>2022-04-23T15:30:24Z</time>
      </trkpt>
      <trkpt lat="48.29613" lon="6.79392">
        <ele>507.71</ele>
        <time>2022-04-23T15:30:28Z</time>
      </trkpt>
      <trkpt lat="48.29598" lon="6.79363">
        <ele>507.23</ele>
        <time>2022-04-23T15:30:32Z</time>
      </trkpt>
      <trkpt lat="48.29585" lon="6.79334">
        <ele>508.19</ele>
        <time>2022-04-23T15:30:36Z</time>
      </trkpt>
      <trkpt lat="48.29578" lon="6.79302">
        <ele>507.71</ele>
        <time>2022-04-23T15:30:40Z</time>
      </trkpt>
      <trkpt lat="48.2957" lon="6.7927">
        <ele>507.23</ele>
        <time>2022-04-23T15:30:44Z</time>
      </trkpt>
      <trkpt lat="48.29562" lon="6.79236">
        <ele>506.75</ele>
        <time>2022-04-23T15:30:48Z</time>
      </trkpt>
      <trkpt lat="48.29553" lon="6.79202">
        <ele>506.75</ele>
        <time>2022-04-23T15:30:52Z</time>
      </trkpt>
      <trkpt lat="48.29546" lon="6.79167">
        <ele>505.79</ele>
        <time>2022-04-23T15:30:56Z</time>
      </trkpt>
      <trkpt lat="48.29548" lon="6.7913">
        <ele>504.83</ele>
        <time>2022-04-23T15:31:00Z</time>
      </trkpt>
      <trkpt lat="48.29548" lon="6.79095">
        <ele>504.83</ele>
        <time>2022-04-23T15:31:04Z</time>
      </trkpt>
      <trkpt lat="48.29544" lon="6.79067">
        <ele>504.83</ele>
        <time>2022-04-23T15:31:09Z</time>
      </trkpt>
      <trkpt lat="48.29537" lon="6.79036">
        <ele>503.87</ele>
        <time>2022-04-23T15:31:14Z</time>
      </trkpt>
      <trkpt lat="48.29534" lon="6.79009">
        <ele>503.39</ele>
        <time>2022-04-23T15:31:19Z</time>
      </trkpt>
      <trkpt lat="48.29525" lon="6.7898">
        <ele>502.91</ele>
        <time>2022-04-23T15:31:24Z</time>
      </trkpt>
      <trkpt lat="48.29513" lon="6.78956">
        <ele>501.46</ele>
        <time>2022-04-23T15:31:28Z</time>
      </trkpt>
      <trkpt lat="48.295" lon="6.7893">
        <ele>500.98</ele>
        <time>2022-04-23T15:31:32Z</time>
      </trkpt>
      <trkpt lat="48.29485" lon="6.78899">
        <ele>500.02</ele>
        <time>2022-04-23T15:31:36Z</time>
      </trkpt>
      <trkpt lat="48.29471" lon="6.78873">
        <ele>500.02</ele>
        <time>2022-04-23T15:31:40Z</time>
      </trkpt>
      <trkpt lat="48.29456" lon="6.78854">
        <ele>500.02</ele>
        <time>2022-04-23T15:31:44Z</time>
      </trkpt>
      <trkpt lat="48.29439" lon="6.78836">
        <ele>499.54</ele>
        <time>2022-04-23T15:31:48Z</time>
      </trkpt>
      <trkpt lat="48.29423" lon="6.78818">
        <ele>499.06</ele>
        <time>2022-04-23T15:31:52Z</time>
      </trkpt>
      <trkpt lat="48.29405" lon="6.78796">
        <ele>498.58</ele>
        <time>2022-04-23T15:31:56Z</time>
      </trkpt>
      <trkpt lat="48.29386" lon="6.78775">
        <ele>498.1</ele>
        <time>2022-04-23T15:32:00Z</time>
      </trkpt>
      <trkpt lat="48.29362" lon="6.78754">
        <ele>498.58</ele>
        <time>2022-04-23T15:32:04Z</time>
      </trkpt>
      <trkpt lat="48.29339" lon="6.78738">
        <ele>498.58</ele>
        <time>2022-04-23T15:32:08Z</time>
      </trkpt>
      <trkpt lat="48.29316" lon="6.78732">
        <ele>498.1</ele>
        <time>2022-04-23T15:32:12Z</time>
      </trkpt>
      <trkpt lat="48.29295" lon="6.78732">
        <ele>499.06</ele>
        <time>2022-04-23T15:32:16Z</time>
      </trkpt>
      <trkpt lat="48.29274" lon="6.78727">
        <ele>499.54</ele>
        <time>2022-04-23T15:32:21Z</time>
      </trkpt>
      <trkpt lat="48.29254" lon="6.7872">
        <ele>500.5</ele>
        <time>2022-04-23T15:32:26Z</time>
      </trkpt>
      <trkpt lat="48.29234" lon="6.7872">
        <ele>500.98</ele>
        <time>2022-04-23T15:32:32Z</time>
      </trkpt>
      <trkpt lat="48.29213" lon="6.78722">
        <ele>501.46</ele>
        <time>2022-04-23T15:32:38Z</time>
      </trkpt>
      <trkpt lat="48.2919" lon="6.78727">
        <ele>501.95</ele>
        <time>2022-04-23T15:32:44Z</time>
      </trkpt>
      <trkpt lat="48.29165" lon="6.78733">
        <ele>502.91</ele>
        <time>2022-04-23T15:32:51Z</time>
      </trkpt>
      <trkpt lat="48.29145" lon="6.78742">
        <ele>503.87</ele>
        <time>2022-04-23T15:32:58Z</time>
      </trkpt>
      <trkpt lat="48.29125" lon="6.78745">
        <ele>504.83</ele>
        <time>2022-04-23T15:33:08Z</time>
      </trkpt>
      <trkpt lat="48.29117" lon="6.78773">
        <ele>503.87</ele>
        <time>2022-04-23T15:33:18Z</time>
      </trkpt>
      <trkpt lat="48.29104" lon="6.78799">
        <ele>503.39</ele>
        <time>2022-04-23T15:33:25Z</time>
      </trkpt>
      <trkpt lat="48.29095" lon="6.78827">
        <ele>503.39</ele>
        <time>2022-04-23T15:33:31Z</time>
      </trkpt>
      <trkpt lat="48.29086" lon="6.78856">
        <ele>503.39</ele>
        <time>2022-04-23T15:33:36Z</time>
      </trkpt>
      <trkpt lat="48.29072" lon="6.78883">
        <ele>504.35</ele>
        <time>2022-04-23T15:33:42Z</time>
      </trkpt>
      <trkpt lat="48.29055" lon="6.78897">
        <ele>504.35</ele>
        <time>2022-04-23T15:33:47Z</time>
      </trkpt>
      <trkpt lat="48.29035" lon="6.78897">
        <ele>505.79</ele>
        <time>2022-04-23T15:33:53Z</time>
      </trkpt>
      <trkpt lat="48.29015" lon="6.78892">
        <ele>506.75</ele>
        <time>2022-04-23T15:33:59Z</time>
      </trkpt>
      <trkpt lat="48.28994" lon="6.78888">
        <ele>506.75</ele>
        <time>2022-04-23T15:34:05Z</time>
      </trkpt>
      <trkpt lat="48.28976" lon="6.78881">
        <ele>505.79</ele>
        <time>2022-04-23T15:34:10Z</time>
      </trkpt>
      <trkpt lat="48.28959" lon="6.78868">
        <ele>505.79</ele>
        <time>2022-04-23T15:34:16Z</time>
      </trkpt>
      <trkpt lat="48.28934" lon="6.78853">
        <ele>505.31</ele>
        <time>2022-04-23T15:34:23Z</time>
      </trkpt>
      <trkpt lat="48.28911" lon="6.78838">
        <ele>505.31</ele>
        <time>2022-04-23T15:34:27Z</time>
      </trkpt>
      <trkpt lat="48.28889" lon="6.78833">
        <ele>504.35</ele>
        <time>2022-04-23T15:34:31Z</time>
      </trkpt>
      <trkpt lat="48.28865" lon="6.78838">
        <ele>504.35</ele>
        <time>2022-04-23T15:34:35Z</time>
      </trkpt>
      <trkpt lat="48.28845" lon="6.78849">
        <ele>503.39</ele>
        <time>2022-04-23T15:34:39Z</time>
      </trkpt>
      <trkpt lat="48.28826" lon="6.78868">
        <ele>503.39</ele>
        <time>2022-04-23T15:34:43Z</time>
      </trkpt>
      <trkpt lat="48.28807" lon="6.78886">
        <ele>503.87</ele>
        <time>2022-04-23T15:34:47Z</time>
      </trkpt>
      <trkpt lat="48.28788" lon="6.78895">
        <ele>504.83</ele>
        <time>2022-04-23T15:34:51Z</time>
      </trkpt>
      <trkpt lat="48.28768" lon="6.78905">
        <ele>505.79</ele>
        <time>2022-04-23T15:34:56Z</time>
      </trkpt>
      <trkpt lat="48.28746" lon="6.78916">
        <ele>506.75</ele>
        <time>2022-04-23T15:35:02Z</time>
      </trkpt>
      <trkpt lat="48.28726" lon="6.78931">
        <ele>506.75</ele>
        <time>2022-04-23T15:35:08Z</time>
      </trkpt>
      <trkpt lat="48.2871" lon="6.78948">
        <ele>506.75</ele>
        <time>2022-04-23T15:35:13Z</time>
      </trkpt>
      <trkpt lat="48.28709" lon="6.78973">
        <ele>507.71</ele>
        <time>2022-04-23T15:35:18Z</time>
      </trkpt>
      <trkpt lat="48.28718" lon="6.78999">
        <ele>507.71</ele>
        <time>2022-04-23T15:35:24Z</time>
      </trkpt>
      <trkpt lat="48.28728" lon="6.79022">
        <ele>508.19</ele>
        <time>2022-04-23T15:35:30Z</time>
      </trkpt>
      <trkpt lat="48.28741" lon="6.79047">
        <ele>508.19</ele>
        <time>2022-04-23T15:35:36Z</time>
      </trkpt>
      <trkpt lat="48.28749" lon="6.79071">
        <ele>508.67</ele>
        <time>2022-04-23T15:35:41Z</time>
      </trkpt>
      <trkpt lat="48.2876" lon="6.79099">
        <ele>508.67</ele>
        <time>2022-04-23T15:35:47Z</time>
      </trkpt>
      <trkpt lat="48.28769" lon="6.79129">
        <ele>509.64</ele>
        <time>2022-04-23T15:35:53Z</time>
      </trkpt>
      <trkpt lat="48.28778" lon="6.79162">
        <ele>509.64</ele>
        <time>2022-04-23T15:35:59Z</time>
      </trkpt>
      <trkpt lat="48.28788" lon="6.79188">
        <ele>510.6</ele>
        <time>2022-04-23T15:36:05Z</time>
      </trkpt>
      <trkpt lat="48.288" lon="6.79213">
        <ele>511.08</ele>
        <time>2022-04-23T15:36:11Z</time>
      </trkpt>
      <trkpt lat="48.28813" lon="6.79238">
        <ele>511.08</ele>
        <time>2022-04-23T15:36:17Z</time>
      </trkpt>
      <trkpt lat="48.28824" lon="6.79264">
        <ele>511.56</ele>
        <time>2022-04-23T15:36:23Z</time>
      </trkpt>
      <trkpt lat="48.28834" lon="6.79289">
        <ele>512.04</ele>
        <time>2022-04-23T15:36:28Z</time>
      </trkpt>
      <trkpt lat="48.28841" lon="6.79317">
        <ele>513</ele>
        <time>2022-04-23T15:36:34Z</time>
      </trkpt>
      <trkpt lat="48.28843" lon="6.79348">
        <ele>513.96</ele>
        <time>2022-04-23T15:36:41Z</time>
      </trkpt>
      <trkpt lat="48.28846" lon="6.79379">
        <ele>514.44</ele>
        <time>2022-04-23T15:36:49Z</time>
      </trkpt>
      <trkpt lat="48.28853" lon="6.79411">
        <ele>522.13</ele>
        <time>2022-04-23T15:37:00Z</time>
      </trkpt>
      <trkpt lat="48.2886" lon="6.79441">
        <ele>516.37</ele>
        <time>2022-04-23T15:37:09Z</time>
      </trkpt>
      <trkpt lat="48.28859" lon="6.79472">
        <ele>516.85</ele>
        <time>2022-04-23T15:37:17Z</time>
      </trkpt>
      <trkpt lat="48.28854" lon="6.79503">
        <ele>517.33</ele>
        <time>2022-04-23T15:37:25Z</time>
      </trkpt>
      <trkpt lat="48.28844" lon="6.79532">
        <ele>519.25</ele>
        <time>2022-04-23T15:37:32Z</time>
      </trkpt>
      <trkpt lat="48.28832" lon="6.79559">
        <ele>519.73</ele>
        <time>2022-04-23T15:37:39Z</time>
      </trkpt>
      <trkpt lat="48.28815" lon="6.79571">
        <ele>520.69</ele>
        <time>2022-04-23T15:37:46Z</time>
      </trkpt>
      <trkpt lat="48.28794" lon="6.79573">
        <ele>521.65</ele>
        <time>2022-04-23T15:37:54Z</time>
      </trkpt>
      <trkpt lat="48.28776" lon="6.79578">
        <ele>521.65</ele>
        <time>2022-04-23T15:38:01Z</time>
      </trkpt>
      <trkpt lat="48.28755" lon="6.79587">
        <ele>521.65</ele>
        <time>2022-04-23T15:38:08Z</time>
      </trkpt>
      <trkpt lat="48.28735" lon="6.79601">
        <ele>521.65</ele>
        <time>2022-04-23T15:38:15Z</time>
      </trkpt>
      <trkpt lat="48.28719" lon="6.79617">
        <ele>522.13</ele>
        <time>2022-04-23T15:38:21Z</time>
      </trkpt>
      <trkpt lat="48.28702" lon="6.79636">
        <ele>522.13</ele>
        <time>2022-04-23T15:38:27Z</time>
      </trkpt>
      <trkpt lat="48.28689" lon="6.79657">
        <ele>523.09</ele>
        <time>2022-04-23T15:38:33Z</time>
      </trkpt>
      <trkpt lat="48.28678" lon="6.79689">
        <ele>525.02</ele>
        <time>2022-04-23T15:38:41Z</time>
      </trkpt>
      <trkpt lat="48.28669" lon="6.79718">
        <ele>525.5</ele>
        <time>2022-04-23T15:38:48Z</time>
      </trkpt>
      <trkpt lat="48.28658" lon="6.79743">
        <ele>526.46</ele>
        <time>2022-04-23T15:38:55Z</time>
      </trkpt>
      <trkpt lat="48.28645" lon="6.79773">
        <ele>527.42</ele>
        <time>2022-04-23T15:39:03Z</time>
      </trkpt>
      <trkpt lat="48.28632" lon="6.79798">
        <ele>528.38</ele>
        <time>2022-04-23T15:39:10Z</time>
      </trkpt>
      <trkpt lat="48.28621" lon="6.79824">
        <ele>528.38</ele>
        <time>2022-04-23T15:39:17Z</time>
      </trkpt>
      <trkpt lat="48.28611" lon="6.79854">
        <ele>528.38</ele>
        <time>2022-04-23T15:39:25Z</time>
      </trkpt>
      <trkpt lat="48.28604" lon="6.79885">
        <ele>529.82</ele>
        <time>2022-04-23T15:39:33Z</time>
      </trkpt>
      <trkpt lat="48.28597" lon="6.79914">
        <ele>531.27</ele>
        <time>2022-04-23T15:39:40Z</time>
      </trkpt>
      <trkpt lat="48.28588" lon="6.79945">
        <ele>532.71</ele>
        <time>2022-04-23T15:39:47Z</time>
      </trkpt>
      <trkpt lat="48.28577" lon="6.79969">
        <ele>533.19</ele>
        <time>2022-04-23T15:39:54Z</time>
      </trkpt>
      <trkpt lat="48.28564" lon="6.79993">
        <ele>533.67</ele>
        <time>2022-04-23T15:40:02Z</time>
      </trkpt>
      <trkpt lat="48.28561" lon="6.80021">
        <ele>534.63</ele>
        <time>2022-04-23T15:40:09Z</time>
      </trkpt>
      <trkpt lat="48.28569" lon="6.80047">
        <ele>534.63</ele>
        <time>2022-04-23T15:40:15Z</time>
      </trkpt>
      <trkpt lat="48.28562" lon="6.80051">
        <ele>535.11</ele>
        <time>2022-04-23T15:41:35Z</time>
      </trkpt>
      <trkpt lat="48.28572" lon="6.80078">
        <ele>535.11</ele>
        <time>2022-04-23T15:41:45Z</time>
      </trkpt>
      <trkpt lat="48.28584" lon="6.80103">
        <ele>533.67</ele>
        <time>2022-04-23T15:41:51Z</time>
      </trkpt>
      <trkpt lat="48.28593" lon="6.80132">
        <ele>531.27</ele>
        <time>2022-04-23T15:41:56Z</time>
      </trkpt>
      <trkpt lat="48.28606" lon="6.80156">
        <ele>531.75</ele>
        <time>2022-04-23T15:42:00Z</time>
      </trkpt>
      <trkpt lat="48.28621" lon="6.80182">
        <ele>531.27</ele>
        <time>2022-04-23T15:42:04Z</time>
      </trkpt>
      <trkpt lat="48.28629" lon="6.80212">
        <ele>532.23</ele>
        <time>2022-04-23T15:42:08Z</time>
      </trkpt>
      <trkpt lat="48.28634" lon="6.80242">
        <ele>531.75</ele>
        <time>2022-04-23T15:42:12Z</time>
      </trkpt>
      <trkpt lat="48.28636" lon="6.80272">
        <ele>532.23</ele>
        <time>2022-04-23T15:42:16Z</time>
      </trkpt>
      <trkpt lat="48.28634" lon="6.80299">
        <ele>533.19</ele>
        <time>2022-04-23T15:42:20Z</time>
      </trkpt>
      <trkpt lat="48.28626" lon="6.80325">
        <ele>533.67</ele>
        <time>2022-04-23T15:42:24Z</time>
      </trkpt>
      <trkpt lat="48.28617" lon="6.80353">
        <ele>534.15</ele>
        <time>2022-04-23T15:42:29Z</time>
      </trkpt>
      <trkpt lat="48.28617" lon="6.8039">
        <ele>534.15</ele>
        <time>2022-04-23T15:43:31Z</time>
      </trkpt>
      <trkpt lat="48.28608" lon="6.80416">
        <ele>533.19</ele>
        <time>2022-04-23T15:43:38Z</time>
      </trkpt>
      <trkpt lat="48.28597" lon="6.80445">
        <ele>532.71</ele>
        <time>2022-04-23T15:43:44Z</time>
      </trkpt>
      <trkpt lat="48.28584" lon="6.80473">
        <ele>531.27</ele>
        <time>2022-04-23T15:43:49Z</time>
      </trkpt>
      <trkpt lat="48.28572" lon="6.80498">
        <ele>530.79</ele>
        <time>2022-04-23T15:43:53Z</time>
      </trkpt>
      <trkpt lat="48.28558" lon="6.80523">
        <ele>529.34</ele>
        <time>2022-04-23T15:43:57Z</time>
      </trkpt>
      <trkpt lat="48.28543" lon="6.80552">
        <ele>526.46</ele>
        <time>2022-04-23T15:44:01Z</time>
      </trkpt>
      <trkpt lat="48.28526" lon="6.80576">
        <ele>523.09</ele>
        <time>2022-04-23T15:44:04Z</time>
      </trkpt>
      <trkpt lat="48.28509" lon="6.80594">
        <ele>520.69</ele>
        <time>2022-04-23T15:44:06Z</time>
      </trkpt>
      <trkpt lat="48.28492" lon="6.80609">
        <ele>516.85</ele>
        <time>2022-04-23T15:44:08Z</time>
      </trkpt>
      <trkpt lat="48.28473" lon="6.8062">
        <ele>515.4</ele>
        <time>2022-04-23T15:44:10Z</time>
      </trkpt>
      <trkpt lat="48.28453" lon="6.8063">
        <ele>513.96</ele>
        <time>2022-04-23T15:44:12Z</time>
      </trkpt>
      <trkpt lat="48.28437" lon="6.8064">
        <ele>513.96</ele>
        <time>2022-04-23T15:44:14Z</time>
      </trkpt>
      <trkpt lat="48.28419" lon="6.80666">
        <ele>514.44</ele>
        <time>2022-04-23T15:44:17Z</time>
      </trkpt>
      <trkpt lat="48.28415" lon="6.80694">
        <ele>516.37</ele>
        <time>2022-04-23T15:44:20Z</time>
      </trkpt>
      <trkpt lat="48.28412" lon="6.80726">
        <ele>517.81</ele>
        <time>2022-04-23T15:44:24Z</time>
      </trkpt>
      <trkpt lat="48.28411" lon="6.80755">
        <ele>519.25</ele>
        <time>2022-04-23T15:44:30Z</time>
      </trkpt>
      <trkpt lat="48.28416" lon="6.80787">
        <ele>521.17</ele>
        <time>2022-04-23T15:44:38Z</time>
      </trkpt>
      <trkpt lat="48.28429" lon="6.80819">
        <ele>523.09</ele>
        <time>2022-04-23T15:44:47Z</time>
      </trkpt>
      <trkpt lat="48.28436" lon="6.80852">
        <ele>524.54</ele>
        <time>2022-04-23T15:44:56Z</time>
      </trkpt>
      <trkpt lat="48.28445" lon="6.80885">
        <ele>526.46</ele>
        <time>2022-04-23T15:45:07Z</time>
      </trkpt>
      <trkpt lat="48.28454" lon="6.80913">
        <ele>528.38</ele>
        <time>2022-04-23T15:45:18Z</time>
      </trkpt>
      <trkpt lat="48.28465" lon="6.80942">
        <ele>530.79</ele>
        <time>2022-04-23T15:45:30Z</time>
      </trkpt>
      <trkpt lat="48.2848" lon="6.80972">
        <ele>533.67</ele>
        <time>2022-04-23T15:45:50Z</time>
      </trkpt>
      <trkpt lat="48.28496" lon="6.80998">
        <ele>535.59</ele>
        <time>2022-04-23T15:46:06Z</time>
      </trkpt>
      <trkpt lat="48.28516" lon="6.81029">
        <ele>537.99</ele>
        <time>2022-04-23T15:46:23Z</time>
      </trkpt>
      <trkpt lat="48.28529" lon="6.81052">
        <ele>539.44</ele>
        <time>2022-04-23T15:46:37Z</time>
      </trkpt>
      <trkpt lat="48.28541" lon="6.81079">
        <ele>542.32</ele>
        <time>2022-04-23T15:46:52Z</time>
      </trkpt>
      <trkpt lat="48.28553" lon="6.81103">
        <ele>544.72</ele>
        <time>2022-04-23T15:47:08Z</time>
      </trkpt>
      <trkpt lat="48.28565" lon="6.81127">
        <ele>546.65</ele>
        <time>2022-04-23T15:47:23Z</time>
      </trkpt>
      <trkpt lat="48.28579" lon="6.81153">
        <ele>549.05</ele>
        <time>2022-04-23T15:47:38Z</time>
      </trkpt>
      <trkpt lat="48.2859" lon="6.81182">
        <ele>551.45</ele>
        <time>2022-04-23T15:47:55Z</time>
      </trkpt>
      <trkpt lat="48.28602" lon="6.81212">
        <ele>553.38</ele>
        <time>2022-04-23T15:48:11Z</time>
      </trkpt>
      <trkpt lat="48.28612" lon="6.81238">
        <ele>555.3</ele>
        <time>2022-04-23T15:48:26Z</time>
      </trkpt>
      <trkpt lat="48.2862" lon="6.81265">
        <ele>556.74</ele>
        <time>2022-04-23T15:48:38Z</time>
      </trkpt>
      <trkpt lat="48.28633" lon="6.81289">
        <ele>557.22</ele>
        <time>2022-04-23T15:48:48Z</time>
      </trkpt>
      <trkpt lat="48.28645" lon="6.81314">
        <ele>558.18</ele>
        <time>2022-04-23T15:49:00Z</time>
      </trkpt>
      <trkpt lat="48.28667" lon="6.81342">
        <ele>559.14</ele>
        <time>2022-04-23T15:49:09Z</time>
      </trkpt>
      <trkpt lat="48.28686" lon="6.81367">
        <ele>560.11</ele>
        <time>2022-04-23T15:49:19Z</time>
      </trkpt>
      <trkpt lat="48.28706" lon="6.81393">
        <ele>561.07</ele>
        <time>2022-04-23T15:49:29Z</time>
      </trkpt>
      <trkpt lat="48.28731" lon="6.81419">
        <ele>562.03</ele>
        <time>2022-04-23T15:49:39Z</time>
      </trkpt>
      <trkpt lat="48.2875" lon="6.81451">
        <ele>562.51</ele>
        <time>2022-04-23T15:49:57Z</time>
      </trkpt>
      <trkpt lat="48.28755" lon="6.81477">
        <ele>563.95</ele>
        <time>2022-04-23T15:50:07Z</time>
      </trkpt>
      <trkpt lat="48.28771" lon="6.81515">
        <ele>564.43</ele>
        <time>2022-04-23T15:50:16Z</time>
      </trkpt>
      <trkpt lat="48.28781" lon="6.81548">
        <ele>566.35</ele>
        <time>2022-04-23T15:50:24Z</time>
      </trkpt>
      <trkpt lat="48.28788" lon="6.81581">
        <ele>566.83</ele>
        <time>2022-04-23T15:50:32Z</time>
      </trkpt>
      <trkpt lat="48.28794" lon="6.81608">
        <ele>567.8</ele>
        <time>2022-04-23T15:50:41Z</time>
      </trkpt>
      <trkpt lat="48.28797" lon="6.8164">
        <ele>568.76</ele>
        <time>2022-04-23T15:50:50Z</time>
      </trkpt>
      <trkpt lat="48.28809" lon="6.81673">
        <ele>570.2</ele>
        <time>2022-04-23T15:51:00Z</time>
      </trkpt>
      <trkpt lat="48.28814" lon="6.8171">
        <ele>570.2</ele>
        <time>2022-04-23T15:51:09Z</time>
      </trkpt>
      <trkpt lat="48.28817" lon="6.81743">
        <ele>572.12</ele>
        <time>2022-04-23T15:51:18Z</time>
      </trkpt>
      <trkpt lat="48.28825" lon="6.81775">
        <ele>573.56</ele>
        <time>2022-04-23T15:51:28Z</time>
      </trkpt>
      <trkpt lat="48.28837" lon="6.81807">
        <ele>574.53</ele>
        <time>2022-04-23T15:51:38Z</time>
      </trkpt>
      <trkpt lat="48.28842" lon="6.81846">
        <ele>575.01</ele>
        <time>2022-04-23T15:51:47Z</time>
      </trkpt>
      <trkpt lat="48.28859" lon="6.81865">
        <ele>575.01</ele>
        <time>2022-04-23T15:51:55Z</time>
      </trkpt>
      <trkpt lat="48.28867" lon="6.81899">
        <ele>574.53</ele>
        <time>2022-04-23T15:52:03Z</time>
      </trkpt>
      <trkpt lat="48.28875" lon="6.8193">
        <ele>573.08</ele>
        <time>2022-04-23T15:52:09Z</time>
      </trkpt>
      <trkpt lat="48.28888" lon="6.81959">
        <ele>570.68</ele>
        <time>2022-04-23T15:52:13Z</time>
      </trkpt>
      <trkpt lat="48.28895" lon="6.81992">
        <ele>568.76</ele>
        <time>2022-04-23T15:52:17Z</time>
      </trkpt>
      <trkpt lat="48.28904" lon="6.82018">
        <ele>567.32</ele>
        <time>2022-04-23T15:52:20Z</time>
      </trkpt>
      <trkpt lat="48.28918" lon="6.82044">
        <ele>564.43</ele>
        <time>2022-04-23T15:52:23Z</time>
      </trkpt>
      <trkpt lat="48.28932" lon="6.8207">
        <ele>563.47</ele>
        <time>2022-04-23T15:52:26Z</time>
      </trkpt>
      <trkpt lat="48.28946" lon="6.82092">
        <ele>562.99</ele>
        <time>2022-04-23T15:52:29Z</time>
      </trkpt>
      <trkpt lat="48.28958" lon="6.82118">
        <ele>562.99</ele>
        <time>2022-04-23T15:52:32Z</time>
      </trkpt>
      <trkpt lat="48.28972" lon="6.8214">
        <ele>562.51</ele>
        <time>2022-04-23T15:52:35Z</time>
      </trkpt>
      <trkpt lat="48.28988" lon="6.82168">
        <ele>562.99</ele>
        <time>2022-04-23T15:52:40Z</time>
      </trkpt>
      <trkpt lat="48.29008" lon="6.82191">
        <ele>563.95</ele>
        <time>2022-04-23T15:52:45Z</time>
      </trkpt>
      <trkpt lat="48.29028" lon="6.82204">
        <ele>563.95</ele>
        <time>2022-04-23T15:52:50Z</time>
      </trkpt>
      <trkpt lat="48.29051" lon="6.82211">
        <ele>564.91</ele>
        <time>2022-04-23T15:52:55Z</time>
      </trkpt>
      <trkpt lat="48.29075" lon="6.8222">
        <ele>565.87</ele>
        <time>2022-04-23T15:53:01Z</time>
      </trkpt>
      <trkpt lat="48.29096" lon="6.82235">
        <ele>565.87</ele>
        <time>2022-04-23T15:53:07Z</time>
      </trkpt>
      <trkpt lat="48.29117" lon="6.82249">
        <ele>566.35</ele>
        <time>2022-04-23T15:53:14Z</time>
      </trkpt>
      <trkpt lat="48.29139" lon="6.82267">
        <ele>569.72</ele>
        <time>2022-04-23T15:53:22Z</time>
      </trkpt>
      <trkpt lat="48.29172" lon="6.8228">
        <ele>567.8</ele>
        <time>2022-04-23T15:53:33Z</time>
      </trkpt>
      <trkpt lat="48.292" lon="6.82287">
        <ele>567.8</ele>
        <time>2022-04-23T15:53:43Z</time>
      </trkpt>
      <trkpt lat="48.29225" lon="6.82268">
        <ele>564.91</ele>
        <time>2022-04-23T15:54:37Z</time>
      </trkpt>
      <trkpt lat="48.2924" lon="6.82238">
        <ele>563.47</ele>
        <time>2022-04-23T15:54:42Z</time>
      </trkpt>
      <trkpt lat="48.2925" lon="6.82205">
        <ele>560.59</ele>
        <time>2022-04-23T15:54:47Z</time>
      </trkpt>
      <trkpt lat="48.29255" lon="6.82175">
        <ele>557.7</ele>
        <time>2022-04-23T15:54:51Z</time>
      </trkpt>
      <trkpt lat="48.29262" lon="6.82145">
        <ele>555.3</ele>
        <time>2022-04-23T15:54:56Z</time>
      </trkpt>
      <trkpt lat="48.29275" lon="6.82104">
        <ele>553.38</ele>
        <time>2022-04-23T15:55:16Z</time>
      </trkpt>
      <trkpt lat="48.2929" lon="6.82081">
        <ele>552.9</ele>
        <time>2022-04-23T15:55:24Z</time>
      </trkpt>
      <trkpt lat="48.29294" lon="6.82047">
        <ele>551.45</ele>
        <time>2022-04-23T15:55:30Z</time>
      </trkpt>
      <trkpt lat="48.29293" lon="6.82018">
        <ele>550.97</ele>
        <time>2022-04-23T15:55:34Z</time>
      </trkpt>
      <trkpt lat="48.29287" lon="6.81988">
        <ele>550.49</ele>
        <time>2022-04-23T15:55:38Z</time>
      </trkpt>
      <trkpt lat="48.29275" lon="6.81955">
        <ele>548.57</ele>
        <time>2022-04-23T15:55:42Z</time>
      </trkpt>
      <trkpt lat="48.29264" lon="6.81931">
        <ele>546.65</ele>
        <time>2022-04-23T15:55:45Z</time>
      </trkpt>
      <trkpt lat="48.29252" lon="6.81903">
        <ele>544.72</ele>
        <time>2022-04-23T15:55:48Z</time>
      </trkpt>
      <trkpt lat="48.2924" lon="6.81877">
        <ele>543.76</ele>
        <time>2022-04-23T15:55:51Z</time>
      </trkpt>
      <trkpt lat="48.29228" lon="6.81851">
        <ele>541.84</ele>
        <time>2022-04-23T15:55:54Z</time>
      </trkpt>
      <trkpt lat="48.29214" lon="6.81825">
        <ele>539.44</ele>
        <time>2022-04-23T15:55:57Z</time>
      </trkpt>
      <trkpt lat="48.29202" lon="6.81797">
        <ele>538.48</ele>
        <time>2022-04-23T15:56:00Z</time>
      </trkpt>
      <trkpt lat="48.29193" lon="6.81768">
        <ele>537.99</ele>
        <time>2022-04-23T15:56:03Z</time>
      </trkpt>
      <trkpt lat="48.29182" lon="6.81737">
        <ele>535.59</ele>
        <time>2022-04-23T15:56:07Z</time>
      </trkpt>
      <trkpt lat="48.29175" lon="6.81709">
        <ele>533.67</ele>
        <time>2022-04-23T15:56:12Z</time>
      </trkpt>
      <trkpt lat="48.29176" lon="6.81678">
        <ele>532.23</ele>
        <time>2022-04-23T15:56:16Z</time>
      </trkpt>
      <trkpt lat="48.29185" lon="6.81649">
        <ele>531.27</ele>
        <time>2022-04-23T15:56:20Z</time>
      </trkpt>
      <trkpt lat="48.29197" lon="6.81624">
        <ele>529.34</ele>
        <time>2022-04-23T15:56:24Z</time>
      </trkpt>
      <trkpt lat="48.2921" lon="6.81591">
        <ele>528.86</ele>
        <time>2022-04-23T15:56:49Z</time>
      </trkpt>
      <trkpt lat="48.29228" lon="6.81572">
        <ele>526.94</ele>
        <time>2022-04-23T15:56:57Z</time>
      </trkpt>
      <trkpt lat="48.29245" lon="6.8155">
        <ele>525.02</ele>
        <time>2022-04-23T15:57:02Z</time>
      </trkpt>
      <trkpt lat="48.29265" lon="6.8153">
        <ele>522.61</ele>
        <time>2022-04-23T15:57:06Z</time>
      </trkpt>
      <trkpt lat="48.29282" lon="6.81508">
        <ele>521.17</ele>
        <time>2022-04-23T15:57:09Z</time>
      </trkpt>
      <trkpt lat="48.29296" lon="6.81486">
        <ele>519.25</ele>
        <time>2022-04-23T15:57:12Z</time>
      </trkpt>
      <trkpt lat="48.2931" lon="6.81464">
        <ele>517.81</ele>
        <time>2022-04-23T15:57:15Z</time>
      </trkpt>
      <trkpt lat="48.29321" lon="6.81439">
        <ele>517.33</ele>
        <time>2022-04-23T15:57:18Z</time>
      </trkpt>
      <trkpt lat="48.29332" lon="6.81412">
        <ele>514.44</ele>
        <time>2022-04-23T15:57:21Z</time>
      </trkpt>
      <trkpt lat="48.29347" lon="6.81392">
        <ele>513.96</ele>
        <time>2022-04-23T15:57:24Z</time>
      </trkpt>
      <trkpt lat="48.29363" lon="6.81377">
        <ele>512.52</ele>
        <time>2022-04-23T15:57:27Z</time>
      </trkpt>
      <trkpt lat="48.29381" lon="6.81365">
        <ele>511.56</ele>
        <time>2022-04-23T15:57:30Z</time>
      </trkpt>
      <trkpt lat="48.29404" lon="6.81358">
        <ele>510.12</ele>
        <time>2022-04-23T15:57:34Z</time>
      </trkpt>
      <trkpt lat="48.29426" lon="6.81359">
        <ele>508.67</ele>
        <time>2022-04-23T15:57:37Z</time>
      </trkpt>
      <trkpt lat="48.29451" lon="6.81363">
        <ele>506.75</ele>
        <time>2022-04-23T15:57:40Z</time>
      </trkpt>
      <trkpt lat="48.29475" lon="6.81367">
        <ele>504.83</ele>
        <time>2022-04-23T15:57:43Z</time>
      </trkpt>
      <trkpt lat="48.29497" lon="6.81376">
        <ele>503.39</ele>
        <time>2022-04-23T15:57:46Z</time>
      </trkpt>
      <trkpt lat="48.29516" lon="6.81389">
        <ele>501.95</ele>
        <time>2022-04-23T15:57:49Z</time>
      </trkpt>
      <trkpt lat="48.29534" lon="6.81404">
        <ele>500.98</ele>
        <time>2022-04-23T15:57:52Z</time>
      </trkpt>
      <trkpt lat="48.29553" lon="6.8142">
        <ele>500.5</ele>
        <time>2022-04-23T15:57:56Z</time>
      </trkpt>
      <trkpt lat="48.29571" lon="6.81438">
        <ele>499.54</ele>
        <time>2022-04-23T15:58:01Z</time>
      </trkpt>
      <trkpt lat="48.29586" lon="6.81458">
        <ele>498.1</ele>
        <time>2022-04-23T15:58:06Z</time>
      </trkpt>
      <trkpt lat="48.29597" lon="6.81488">
        <ele>498.1</ele>
        <time>2022-04-23T15:58:11Z</time>
      </trkpt>
      <trkpt lat="48.29601" lon="6.81519">
        <ele>498.1</ele>
        <time>2022-04-23T15:58:17Z</time>
      </trkpt>
      <trkpt lat="48.29606" lon="6.81546">
        <ele>499.06</ele>
        <time>2022-04-23T15:58:25Z</time>
      </trkpt>
      <trkpt lat="48.29632" lon="6.81543">
        <ele>496.66</ele>
        <time>2022-04-23T15:58:56Z</time>
      </trkpt>
      <trkpt lat="48.2965" lon="6.81526">
        <ele>494.26</ele>
        <time>2022-04-23T15:59:01Z</time>
      </trkpt>
      <trkpt lat="48.29668" lon="6.81505">
        <ele>490.89</ele>
        <time>2022-04-23T15:59:05Z</time>
      </trkpt>
      <trkpt lat="48.29685" lon="6.81478">
        <ele>489.45</ele>
        <time>2022-04-23T15:59:09Z</time>
      </trkpt>
      <trkpt lat="48.29692" lon="6.81447">
        <ele>488.01</ele>
        <time>2022-04-23T15:59:13Z</time>
      </trkpt>
      <trkpt lat="48.29694" lon="6.81418">
        <ele>486.08</ele>
        <time>2022-04-23T15:59:17Z</time>
      </trkpt>
      <trkpt lat="48.29701" lon="6.81386">
        <ele>484.16</ele>
        <time>2022-04-23T15:59:21Z</time>
      </trkpt>
      <trkpt lat="48.29714" lon="6.81355">
        <ele>481.76</ele>
        <time>2022-04-23T15:59:25Z</time>
      </trkpt>
      <trkpt lat="48.29725" lon="6.81332">
        <ele>479.35</ele>
        <time>2022-04-23T15:59:28Z</time>
      </trkpt>
      <trkpt lat="48.29735" lon="6.81307">
        <ele>476.95</ele>
        <time>2022-04-23T15:59:31Z</time>
      </trkpt>
      <trkpt lat="48.29745" lon="6.81282">
        <ele>475.99</ele>
        <time>2022-04-23T15:59:34Z</time>
      </trkpt>
      <trkpt lat="48.29755" lon="6.81258">
        <ele>475.51</ele>
        <time>2022-04-23T15:59:37Z</time>
      </trkpt>
      <trkpt lat="48.29763" lon="6.81233">
        <ele>474.07</ele>
        <time>2022-04-23T15:59:40Z</time>
      </trkpt>
      <trkpt lat="48.2977" lon="6.81207">
        <ele>473.11</ele>
        <time>2022-04-23T15:59:43Z</time>
      </trkpt>
      <trkpt lat="48.29781" lon="6.81177">
        <ele>469.74</ele>
        <time>2022-04-23T15:59:47Z</time>
      </trkpt>
      <trkpt lat="48.29791" lon="6.81151">
        <ele>467.34</ele>
        <time>2022-04-23T15:59:51Z</time>
      </trkpt>
      <trkpt lat="48.29802" lon="6.81124">
        <ele>465.9</ele>
        <time>2022-04-23T15:59:55Z</time>
      </trkpt>
      <trkpt lat="48.2981" lon="6.81097">
        <ele>463.97</ele>
        <time>2022-04-23T15:59:59Z</time>
      </trkpt>
      <trkpt lat="48.29835" lon="6.81076">
        <ele>461.57</ele>
        <time>2022-04-23T16:00:23Z</time>
      </trkpt>
      <trkpt lat="48.29855" lon="6.81073">
        <ele>460.13</ele>
        <time>2022-04-23T16:00:29Z</time>
      </trkpt>
      <trkpt lat="48.29874" lon="6.81073">
        <ele>460.61</ele>
        <time>2022-04-23T16:00:35Z</time>
      </trkpt>
      <trkpt lat="48.29894" lon="6.81081">
        <ele>459.17</ele>
        <time>2022-04-23T16:00:41Z</time>
      </trkpt>
      <trkpt lat="48.2991" lon="6.81101">
        <ele>456.76</ele>
        <time>2022-04-23T16:00:46Z</time>
      </trkpt>
      <trkpt lat="48.29922" lon="6.81123">
        <ele>454.84</ele>
        <time>2022-04-23T16:00:50Z</time>
      </trkpt>
      <trkpt lat="48.29931" lon="6.81155">
        <ele>453.4</ele>
        <time>2022-04-23T16:00:54Z</time>
      </trkpt>
      <trkpt lat="48.29933" lon="6.81185">
        <ele>451.48</ele>
        <time>2022-04-23T16:00:58Z</time>
      </trkpt>
      <trkpt lat="48.29931" lon="6.81212">
        <ele>448.11</ele>
        <time>2022-04-23T16:01:01Z</time>
      </trkpt>
      <trkpt lat="48.29925" lon="6.81243">
        <ele>446.19</ele>
        <time>2022-04-23T16:01:04Z</time>
      </trkpt>
      <trkpt lat="48.29921" lon="6.81271">
        <ele>444.27</ele>
        <time>2022-04-23T16:01:07Z</time>
      </trkpt>
      <trkpt lat="48.29916" lon="6.81299">
        <ele>442.82</ele>
        <time>2022-04-23T16:01:10Z</time>
      </trkpt>
      <trkpt lat="48.29905" lon="6.81331">
        <ele>440.42</ele>
        <time>2022-04-23T16:01:14Z</time>
      </trkpt>
      <trkpt lat="48.29891" lon="6.81351">
        <ele>438.5</ele>
        <time>2022-04-23T16:01:17Z</time>
      </trkpt>
      <trkpt lat="48.29881" lon="6.81374">
        <ele>436.58</ele>
        <time>2022-04-23T16:01:20Z</time>
      </trkpt>
      <trkpt lat="48.29875" lon="6.81401">
        <ele>434.17</ele>
        <time>2022-04-23T16:01:24Z</time>
      </trkpt>
      <trkpt lat="48.29869" lon="6.81429">
        <ele>432.25</ele>
        <time>2022-04-23T16:01:31Z</time>
      </trkpt>
      <trkpt lat="48.29872" lon="6.81454">
        <ele>421.68</ele>
        <time>2022-04-23T16:04:17Z</time>
      </trkpt>
      <trkpt lat="48.2987" lon="6.81457">
        <ele>438.98</ele>
        <time>2022-04-23T16:05:12Z</time>
      </trkpt>
      <trkpt lat="48.29871" lon="6.81471">
        <ele>430.33</ele>
        <time>2022-04-23T16:05:51Z</time>
      </trkpt>
      <trkpt lat="48.29902" lon="6.81462">
        <ele>428.4</ele>
        <time>2022-04-23T16:05:59Z</time>
      </trkpt>
      <trkpt lat="48.29923" lon="6.8146">
        <ele>426.48</ele>
        <time>2022-04-23T16:06:03Z</time>
      </trkpt>
      <trkpt lat="48.29943" lon="6.81461">
        <ele>425.04</ele>
        <time>2022-04-23T16:06:06Z</time>
      </trkpt>
      <trkpt lat="48.29967" lon="6.8146">
        <ele>423.6</ele>
        <time>2022-04-23T16:06:10Z</time>
      </trkpt>
      <trkpt lat="48.29987" lon="6.81454">
        <ele>423.6</ele>
        <time>2022-04-23T16:06:13Z</time>
      </trkpt>
      <trkpt lat="48.30011" lon="6.81446">
        <ele>423.12</ele>
        <time>2022-04-23T16:06:17Z</time>
      </trkpt>
      <trkpt lat="48.30035" lon="6.81441">
        <ele>423.12</ele>
        <time>2022-04-23T16:06:21Z</time>
      </trkpt>
      <trkpt lat="48.3006" lon="6.81447">
        <ele>422.16</ele>
        <time>2022-04-23T16:06:25Z</time>
      </trkpt>
      <trkpt lat="48.3008" lon="6.81454">
        <ele>421.19</ele>
        <time>2022-04-23T16:06:28Z</time>
      </trkpt>
      <trkpt lat="48.30101" lon="6.81457">
        <ele>418.79</ele>
        <time>2022-04-23T16:06:31Z</time>
      </trkpt>
      <trkpt lat="48.30123" lon="6.81457">
        <ele>415.91</ele>
        <time>2022-04-23T16:06:34Z</time>
      </trkpt>
      <trkpt lat="48.30151" lon="6.8146">
        <ele>412.06</ele>
        <time>2022-04-23T16:06:37Z</time>
      </trkpt>
      <trkpt lat="48.30172" lon="6.81461">
        <ele>409.66</ele>
        <time>2022-04-23T16:06:39Z</time>
      </trkpt>
      <trkpt lat="48.30194" lon="6.81465">
        <ele>406.77</ele>
        <time>2022-04-23T16:06:41Z</time>
      </trkpt>
      <trkpt lat="48.30216" lon="6.81469">
        <ele>405.33</ele>
        <time>2022-04-23T16:06:43Z</time>
      </trkpt>
      <trkpt lat="48.30238" lon="6.81473">
        <ele>402.93</ele>
        <time>2022-04-23T16:06:45Z</time>
      </trkpt>
      <trkpt lat="48.30257" lon="6.81478">
        <ele>401.49</ele>
        <time>2022-04-23T16:06:47Z</time>
      </trkpt>
      <trkpt lat="48.30276" lon="6.81485">
        <ele>400.05</ele>
        <time>2022-04-23T16:06:50Z</time>
      </trkpt>
      <trkpt lat="48.30298" lon="6.81487">
        <ele>396.2</ele>
        <time>2022-04-23T16:06:54Z</time>
      </trkpt>
      <trkpt lat="48.3032" lon="6.81487">
        <ele>394.76</ele>
        <time>2022-04-23T16:06:57Z</time>
      </trkpt>
      <trkpt lat="48.30347" lon="6.81485">
        <ele>392.84</ele>
        <time>2022-04-23T16:07:00Z</time>
      </trkpt>
      <trkpt lat="48.30375" lon="6.81476">
        <ele>391.87</ele>
        <time>2022-04-23T16:07:03Z</time>
      </trkpt>
      <trkpt lat="48.304" lon="6.8146">
        <ele>390.43</ele>
        <time>2022-04-23T16:07:06Z</time>
      </trkpt>
      <trkpt lat="48.30424" lon="6.81443">
        <ele>389.95</ele>
        <time>2022-04-23T16:07:09Z</time>
      </trkpt>
      <trkpt lat="48.30447" lon="6.81427">
        <ele>388.03</ele>
        <time>2022-04-23T16:07:12Z</time>
      </trkpt>
      <trkpt lat="48.30471" lon="6.8141">
        <ele>387.07</ele>
        <time>2022-04-23T16:07:15Z</time>
      </trkpt>
      <trkpt lat="48.30493" lon="6.81392">
        <ele>385.63</ele>
        <time>2022-04-23T16:07:18Z</time>
      </trkpt>
      <trkpt lat="48.30514" lon="6.81376">
        <ele>385.15</ele>
        <time>2022-04-23T16:07:21Z</time>
      </trkpt>
      <trkpt lat="48.30533" lon="6.81364">
        <ele>384.66</ele>
        <time>2022-04-23T16:07:25Z</time>
      </trkpt>
      <trkpt lat="48.30533" lon="6.81346">
        <ele>383.7</ele>
        <time>2022-04-23T16:07:34Z</time>
      </trkpt>
      <trkpt lat="48.30516" lon="6.81326">
        <ele>383.22</ele>
        <time>2022-04-23T16:07:40Z</time>
      </trkpt>
      <trkpt lat="48.30501" lon="6.81306">
        <ele>383.22</ele>
        <time>2022-04-23T16:07:45Z</time>
      </trkpt>
      <trkpt lat="48.30486" lon="6.81288">
        <ele>382.74</ele>
        <time>2022-04-23T16:07:49Z</time>
      </trkpt>
      <trkpt lat="48.30473" lon="6.81271">
        <ele>382.26</ele>
        <time>2022-04-23T16:07:53Z</time>
      </trkpt>
      <trkpt lat="48.30459" lon="6.8125">
        <ele>381.78</ele>
        <time>2022-04-23T16:08:29Z</time>
      </trkpt>
      <trkpt lat="48.30445" lon="6.81229">
        <ele>381.78</ele>
        <time>2022-04-23T16:08:35Z</time>
      </trkpt>
      <trkpt lat="48.30432" lon="6.81206">
        <ele>381.3</ele>
        <time>2022-04-23T16:08:40Z</time>
      </trkpt>
      <trkpt lat="48.30416" lon="6.8118">
        <ele>381.3</ele>
        <time>2022-04-23T16:08:45Z</time>
      </trkpt>
      <trkpt lat="48.30403" lon="6.81159">
        <ele>380.34</ele>
        <time>2022-04-23T16:08:49Z</time>
      </trkpt>
      <trkpt lat="48.30389" lon="6.8114">
        <ele>380.34</ele>
        <time>2022-04-23T16:08:53Z</time>
      </trkpt>
      <trkpt lat="48.30376" lon="6.8112">
        <ele>380.34</ele>
        <time>2022-04-23T16:08:57Z</time>
      </trkpt>
      <trkpt lat="48.30362" lon="6.81102">
        <ele>380.82</ele>
        <time>2022-04-23T16:09:01Z</time>
      </trkpt>
      <trkpt lat="48.30345" lon="6.81084">
        <ele>381.3</ele>
        <time>2022-04-23T16:09:06Z</time>
      </trkpt>
      <trkpt lat="48.30327" lon="6.81066">
        <ele>380.82</ele>
        <time>2022-04-23T16:09:11Z</time>
      </trkpt>
      <trkpt lat="48.3031" lon="6.81052">
        <ele>392.84</ele>
        <time>2022-04-23T16:09:16Z</time>
      </trkpt>
      <trkpt lat="48.30294" lon="6.81037">
        <ele>382.26</ele>
        <time>2022-04-23T16:09:22Z</time>
      </trkpt>
      <trkpt lat="48.30278" lon="6.81021">
        <ele>382.26</ele>
        <time>2022-04-23T16:09:28Z</time>
      </trkpt>
      <trkpt lat="48.3026" lon="6.81005">
        <ele>383.22</ele>
        <time>2022-04-23T16:09:34Z</time>
      </trkpt>
      <trkpt lat="48.30245" lon="6.8099">
        <ele>383.7</ele>
        <time>2022-04-23T16:09:39Z</time>
      </trkpt>
      <trkpt lat="48.30231" lon="6.80974">
        <ele>383.7</ele>
        <time>2022-04-23T16:09:44Z</time>
      </trkpt>
      <trkpt lat="48.30217" lon="6.80957">
        <ele>383.7</ele>
        <time>2022-04-23T16:09:49Z</time>
      </trkpt>
      <trkpt lat="48.30203" lon="6.80935">
        <ele>384.66</ele>
        <time>2022-04-23T16:09:55Z</time>
      </trkpt>
      <trkpt lat="48.30192" lon="6.80912">
        <ele>384.66</ele>
        <time>2022-04-23T16:10:02Z</time>
      </trkpt>
      <trkpt lat="48.30184" lon="6.80889">
        <ele>384.18</ele>
        <time>2022-04-23T16:10:08Z</time>
      </trkpt>
      <trkpt lat="48.30173" lon="6.80867">
        <ele>384.66</ele>
        <time>2022-04-23T16:10:13Z</time>
      </trkpt>
      <trkpt lat="48.3016" lon="6.80843">
        <ele>384.18</ele>
        <time>2022-04-23T16:10:19Z</time>
      </trkpt>
      <trkpt lat="48.30147" lon="6.80819">
        <ele>384.18</ele>
        <time>2022-04-23T16:10:24Z</time>
      </trkpt>
      <trkpt lat="48.30133" lon="6.80799">
        <ele>383.7</ele>
        <time>2022-04-23T16:10:29Z</time>
      </trkpt>
      <trkpt lat="48.30118" lon="6.80779">
        <ele>384.18</ele>
        <time>2022-04-23T16:10:34Z</time>
      </trkpt>
      <trkpt lat="48.30103" lon="6.80758">
        <ele>384.18</ele>
        <time>2022-04-23T16:10:39Z</time>
      </trkpt>
      <trkpt lat="48.30087" lon="6.80744">
        <ele>384.18</ele>
        <time>2022-04-23T16:10:44Z</time>
      </trkpt>
      <trkpt lat="48.30069" lon="6.80732">
        <ele>384.66</ele>
        <time>2022-04-23T16:10:49Z</time>
      </trkpt>
      <trkpt lat="48.30048" lon="6.80721">
        <ele>384.18</ele>
        <time>2022-04-23T16:10:54Z</time>
      </trkpt>
      <trkpt lat="48.30024" lon="6.80714">
        <ele>379.86</ele>
        <time>2022-04-23T16:11:00Z</time>
      </trkpt>
      <trkpt lat="48.30004" lon="6.80708">
        <ele>385.15</ele>
        <time>2022-04-23T16:11:06Z</time>
      </trkpt>
      <trkpt lat="48.29984" lon="6.80702">
        <ele>385.63</ele>
        <time>2022-04-23T16:11:11Z</time>
      </trkpt>
      <trkpt lat="48.29962" lon="6.80696">
        <ele>385.63</ele>
        <time>2022-04-23T16:11:17Z</time>
      </trkpt>
      <trkpt lat="48.29943" lon="6.80686">
        <ele>386.59</ele>
        <time>2022-04-23T16:11:23Z</time>
      </trkpt>
      <trkpt lat="48.29938" lon="6.80661">
        <ele>387.07</ele>
        <time>2022-04-23T16:11:30Z</time>
      </trkpt>
      <trkpt lat="48.29955" lon="6.8065">
        <ele>387.55</ele>
        <time>2022-04-23T16:11:42Z</time>
      </trkpt>
      <trkpt lat="48.29976" lon="6.80641">
        <ele>387.07</ele>
        <time>2022-04-23T16:11:49Z</time>
      </trkpt>
      <trkpt lat="48.29997" lon="6.80631">
        <ele>387.07</ele>
        <time>2022-04-23T16:11:55Z</time>
      </trkpt>
      <trkpt lat="48.30019" lon="6.80621">
        <ele>386.59</ele>
        <time>2022-04-23T16:12:00Z</time>
      </trkpt>
      <trkpt lat="48.30037" lon="6.80611">
        <ele>386.59</ele>
        <time>2022-04-23T16:12:04Z</time>
      </trkpt>
      <trkpt lat="48.30059" lon="6.80608">
        <ele>387.07</ele>
        <time>2022-04-23T16:12:08Z</time>
      </trkpt>
      <trkpt lat="48.30079" lon="6.80599">
        <ele>386.59</ele>
        <time>2022-04-23T16:12:12Z</time>
      </trkpt>
      <trkpt lat="48.30097" lon="6.80591">
        <ele>387.07</ele>
        <time>2022-04-23T16:12:16Z</time>
      </trkpt>
      <trkpt lat="48.30118" lon="6.80582">
        <ele>387.07</ele>
        <time>2022-04-23T16:12:20Z</time>
      </trkpt>
      <trkpt lat="48.30136" lon="6.80572">
        <ele>387.07</ele>
        <time>2022-04-23T16:12:24Z</time>
      </trkpt>
      <trkpt lat="48.30157" lon="6.80556">
        <ele>388.03</ele>
        <time>2022-04-23T16:12:29Z</time>
      </trkpt>
      <trkpt lat="48.30174" lon="6.80538">
        <ele>388.03</ele>
        <time>2022-04-23T16:12:34Z</time>
      </trkpt>
      <trkpt lat="48.30192" lon="6.8052">
        <ele>388.99</ele>
        <time>2022-04-23T16:12:40Z</time>
      </trkpt>
      <trkpt lat="48.30212" lon="6.80503">
        <ele>389.95</ele>
        <time>2022-04-23T16:12:46Z</time>
      </trkpt>
      <trkpt lat="48.30233" lon="6.8049">
        <ele>390.91</ele>
        <time>2022-04-23T16:12:52Z</time>
      </trkpt>
      <trkpt lat="48.30252" lon="6.80478">
        <ele>392.36</ele>
        <time>2022-04-23T16:12:58Z</time>
      </trkpt>
      <trkpt lat="48.30272" lon="6.80465">
        <ele>393.8</ele>
        <time>2022-04-23T16:13:05Z</time>
      </trkpt>
      <trkpt lat="48.30292" lon="6.80441">
        <ele>396.68</ele>
        <time>2022-04-23T16:13:15Z</time>
      </trkpt>
      <trkpt lat="48.30303" lon="6.80417">
        <ele>398.6</ele>
        <time>2022-04-23T16:13:49Z</time>
      </trkpt>
      <trkpt lat="48.30283" lon="6.80422">
        <ele>397.64</ele>
        <time>2022-04-23T16:13:59Z</time>
      </trkpt>
      <trkpt lat="48.30264" lon="6.80412">
        <ele>399.08</ele>
        <time>2022-04-23T16:14:06Z</time>
      </trkpt>
      <trkpt lat="48.30245" lon="6.80399">
        <ele>399.08</ele>
        <time>2022-04-23T16:14:13Z</time>
      </trkpt>
      <trkpt lat="48.30227" lon="6.80382">
        <ele>400.05</ele>
        <time>2022-04-23T16:14:19Z</time>
      </trkpt>
      <trkpt lat="48.30208" lon="6.80383">
        <ele>401.97</ele>
        <time>2022-04-23T16:14:27Z</time>
      </trkpt>
      <trkpt lat="48.30191" lon="6.80393">
        <ele>404.37</ele>
        <time>2022-04-23T16:14:35Z</time>
      </trkpt>
      <trkpt lat="48.30172" lon="6.80406">
        <ele>405.81</ele>
        <time>2022-04-23T16:14:44Z</time>
      </trkpt>
      <trkpt lat="48.30154" lon="6.80426">
        <ele>407.26</ele>
        <time>2022-04-23T16:14:53Z</time>
      </trkpt>
      <trkpt lat="48.30137" lon="6.80447">
        <ele>408.22</ele>
        <time>2022-04-23T16:15:01Z</time>
      </trkpt>
      <trkpt lat="48.30121" lon="6.80472">
        <ele>409.66</ele>
        <time>2022-04-23T16:15:09Z</time>
      </trkpt>
      <trkpt lat="48.30104" lon="6.8048">
        <ele>411.1</ele>
        <time>2022-04-23T16:15:21Z</time>
      </trkpt>
      <trkpt lat="48.30077" lon="6.80493">
        <ele>413.02</ele>
        <time>2022-04-23T16:15:31Z</time>
      </trkpt>
      <trkpt lat="48.30053" lon="6.80493">
        <ele>413.5</ele>
        <time>2022-04-23T16:15:41Z</time>
      </trkpt>
      <trkpt lat="48.30031" lon="6.80491">
        <ele>414.47</ele>
        <time>2022-04-23T16:15:51Z</time>
      </trkpt>
      <trkpt lat="48.30009" lon="6.80491">
        <ele>415.91</ele>
        <time>2022-04-23T16:16:01Z</time>
      </trkpt>
      <trkpt lat="48.29986" lon="6.80492">
        <ele>417.83</ele>
        <time>2022-04-23T16:16:10Z</time>
      </trkpt>
      <trkpt lat="48.29961" lon="6.80493">
        <ele>420.23</ele>
        <time>2022-04-23T16:16:22Z</time>
      </trkpt>
      <trkpt lat="48.29941" lon="6.80494">
        <ele>422.16</ele>
        <time>2022-04-23T16:16:33Z</time>
      </trkpt>
      <trkpt lat="48.29913" lon="6.80498">
        <ele>423.6</ele>
        <time>2022-04-23T16:16:48Z</time>
      </trkpt>
      <trkpt lat="48.29892" lon="6.80493">
        <ele>426</ele>
        <time>2022-04-23T16:17:00Z</time>
      </trkpt>
      <trkpt lat="48.29869" lon="6.80487">
        <ele>427.44</ele>
        <time>2022-04-23T16:17:13Z</time>
      </trkpt>
      <trkpt lat="48.29849" lon="6.80474">
        <ele>429.85</ele>
        <time>2022-04-23T16:17:26Z</time>
      </trkpt>
      <trkpt lat="48.29828" lon="6.80455">
        <ele>432.73</ele>
        <time>2022-04-23T16:17:40Z</time>
      </trkpt>
      <trkpt lat="48.298" lon="6.8043">
        <ele>435.61</ele>
        <time>2022-04-23T16:17:58Z</time>
      </trkpt>
      <trkpt lat="48.2978" lon="6.80405">
        <ele>438.02</ele>
        <time>2022-04-23T16:18:13Z</time>
      </trkpt>
      <trkpt lat="48.29768" lon="6.80378">
        <ele>440.9</ele>
        <time>2022-04-23T16:18:29Z</time>
      </trkpt>
      <trkpt lat="48.29765" lon="6.80348">
        <ele>441.38</ele>
        <time>2022-04-23T16:18:41Z</time>
      </trkpt>
      <trkpt lat="48.29757" lon="6.8032">
        <ele>442.82</ele>
        <time>2022-04-23T16:18:54Z</time>
      </trkpt>
      <trkpt lat="48.29736" lon="6.80318">
        <ele>446.19</ele>
        <time>2022-04-23T16:19:08Z</time>
      </trkpt>
      <trkpt lat="48.29714" lon="6.80316">
        <ele>448.11</ele>
        <time>2022-04-23T16:19:19Z</time>
      </trkpt>
      <trkpt lat="48.29696" lon="6.803">
        <ele>450.52</ele>
        <time>2022-04-23T16:19:31Z</time>
      </trkpt>
      <trkpt lat="48.29679" lon="6.80281">
        <ele>452.44</ele>
        <time>2022-04-23T16:19:43Z</time>
      </trkpt>
      <trkpt lat="48.29663" lon="6.80257">
        <ele>452.92</ele>
        <time>2022-04-23T16:19:53Z</time>
      </trkpt>
      <trkpt lat="48.29651" lon="6.8023">
        <ele>453.88</ele>
        <time>2022-04-23T16:21:43Z</time>
      </trkpt>
      <trkpt lat="48.29649" lon="6.80198">
        <ele>453.4</ele>
        <time>2022-04-23T16:21:52Z</time>
      </trkpt>
      <trkpt lat="48.2965" lon="6.80167">
        <ele>453.88</ele>
        <time>2022-04-23T16:21:59Z</time>
      </trkpt>
      <trkpt lat="48.29651" lon="6.80137">
        <ele>454.36</ele>
        <time>2022-04-23T16:22:05Z</time>
      </trkpt>
      <trkpt lat="48.29652" lon="6.80108">
        <ele>454.84</ele>
        <time>2022-04-23T16:22:11Z</time>
      </trkpt>
      <trkpt lat="48.29659" lon="6.80081">
        <ele>456.28</ele>
        <time>2022-04-23T16:22:17Z</time>
      </trkpt>
      <trkpt lat="48.29651" lon="6.80049">
        <ele>458.21</ele>
        <time>2022-04-23T16:22:24Z</time>
      </trkpt>
      <trkpt lat="48.29627" lon="6.80049">
        <ele>459.17</ele>
        <time>2022-04-23T16:22:30Z</time>
      </trkpt>
      <trkpt lat="48.29607" lon="6.80055">
        <ele>461.09</ele>
        <time>2022-04-23T16:22:37Z</time>
      </trkpt>
      <trkpt lat="48.29587" lon="6.80077">
        <ele>463.01</ele>
        <time>2022-04-23T16:22:44Z</time>
      </trkpt>
      <trkpt lat="48.29571" lon="6.80097">
        <ele>463.97</ele>
        <time>2022-04-23T16:22:51Z</time>
      </trkpt>
      <trkpt lat="48.29551" lon="6.80115">
        <ele>464.93</ele>
        <time>2022-04-23T16:22:59Z</time>
      </trkpt>
      <trkpt lat="48.29529" lon="6.80128">
        <ele>466.86</ele>
        <time>2022-04-23T16:23:07Z</time>
      </trkpt>
      <trkpt lat="48.29509" lon="6.80124">
        <ele>467.34</ele>
        <time>2022-04-23T16:23:15Z</time>
      </trkpt>
      <trkpt lat="48.29498" lon="6.80108">
        <ele>466.86</ele>
        <time>2022-04-23T16:23:24Z</time>
      </trkpt>
      <trkpt lat="48.29483" lon="6.80087">
        <ele>466.38</ele>
        <time>2022-04-23T16:23:30Z</time>
      </trkpt>
      <trkpt lat="48.2947" lon="6.80067">
        <ele>465.9</ele>
        <time>2022-04-23T16:23:35Z</time>
      </trkpt>
      <trkpt lat="48.29456" lon="6.80043">
        <ele>465.42</ele>
        <time>2022-04-23T16:23:40Z</time>
      </trkpt>
      <trkpt lat="48.29444" lon="6.80018">
        <ele>464.93</ele>
        <time>2022-04-23T16:23:45Z</time>
      </trkpt>
      <trkpt lat="48.2943" lon="6.79988">
        <ele>464.45</ele>
        <time>2022-04-23T16:23:50Z</time>
      </trkpt>
      <trkpt lat="48.29421" lon="6.79958">
        <ele>463.97</ele>
        <time>2022-04-23T16:23:55Z</time>
      </trkpt>
      <trkpt lat="48.29412" lon="6.79926">
        <ele>463.49</ele>
        <time>2022-04-23T16:24:00Z</time>
      </trkpt>
      <trkpt lat="48.29405" lon="6.79897">
        <ele>463.01</ele>
        <time>2022-04-23T16:24:04Z</time>
      </trkpt>
      <trkpt lat="48.29399" lon="6.79872">
        <ele>463.01</ele>
        <time>2022-04-23T16:24:11Z</time>
      </trkpt>
      <trkpt lat="48.29396" lon="6.79849">
        <ele>463.49</ele>
        <time>2022-04-23T16:25:18Z</time>
      </trkpt>
      <trkpt lat="48.29394" lon="6.79817">
        <ele>463.49</ele>
        <time>2022-04-23T16:25:25Z</time>
      </trkpt>
      <trkpt lat="48.29393" lon="6.79787">
        <ele>463.97</ele>
        <time>2022-04-23T16:25:31Z</time>
      </trkpt>
      <trkpt lat="48.29386" lon="6.79755">
        <ele>463.97</ele>
        <time>2022-04-23T16:25:37Z</time>
      </trkpt>
      <trkpt lat="48.29379" lon="6.79727">
        <ele>463.01</ele>
        <time>2022-04-23T16:25:42Z</time>
      </trkpt>
      <trkpt lat="48.29371" lon="6.79695">
        <ele>462.53</ele>
        <time>2022-04-23T16:25:46Z</time>
      </trkpt>
      <trkpt lat="48.29363" lon="6.79666">
        <ele>462.05</ele>
        <time>2022-04-23T16:25:50Z</time>
      </trkpt>
      <trkpt lat="48.29361" lon="6.79635">
        <ele>461.57</ele>
        <time>2022-04-23T16:25:54Z</time>
      </trkpt>
      <trkpt lat="48.29361" lon="6.79606">
        <ele>462.05</ele>
        <time>2022-04-23T16:25:58Z</time>
      </trkpt>
      <trkpt lat="48.29362" lon="6.79576">
        <ele>463.97</ele>
        <time>2022-04-23T16:26:03Z</time>
      </trkpt>
      <trkpt lat="48.29365" lon="6.79542">
        <ele>465.9</ele>
        <time>2022-04-23T16:26:11Z</time>
      </trkpt>
      <trkpt lat="48.29377" lon="6.79521">
        <ele>468.3</ele>
        <time>2022-04-23T16:26:20Z</time>
      </trkpt>
      <trkpt lat="48.29393" lon="6.79505">
        <ele>470.22</ele>
        <time>2022-04-23T16:26:29Z</time>
      </trkpt>
      <trkpt lat="48.29414" lon="6.79493">
        <ele>473.59</ele>
        <time>2022-04-23T16:26:45Z</time>
      </trkpt>
      <trkpt lat="48.29436" lon="6.79486">
        <ele>476.47</ele>
        <time>2022-04-23T16:27:02Z</time>
      </trkpt>
      <trkpt lat="48.29459" lon="6.79481">
        <ele>479.35</ele>
        <time>2022-04-23T16:27:14Z</time>
      </trkpt>
      <trkpt lat="48.29482" lon="6.79484">
        <ele>481.28</ele>
        <time>2022-04-23T16:27:27Z</time>
      </trkpt>
      <trkpt lat="48.29503" lon="6.79483">
        <ele>482.72</ele>
        <time>2022-04-23T16:27:38Z</time>
      </trkpt>
      <trkpt lat="48.29524" lon="6.79479">
        <ele>484.16</ele>
        <time>2022-04-23T16:27:53Z</time>
      </trkpt>
      <trkpt lat="48.29533" lon="6.79453">
        <ele>486.08</ele>
        <time>2022-04-23T16:28:10Z</time>
      </trkpt>
      <trkpt lat="48.29525" lon="6.79423">
        <ele>488.97</ele>
        <time>2022-04-23T16:28:29Z</time>
      </trkpt>
      <trkpt lat="48.29511" lon="6.79401">
        <ele>491.85</ele>
        <time>2022-04-23T16:28:45Z</time>
      </trkpt>
      <trkpt lat="48.29496" lon="6.79381">
        <ele>494.26</ele>
        <time>2022-04-23T16:29:00Z</time>
      </trkpt>
      <trkpt lat="48.29478" lon="6.79363">
        <ele>495.7</ele>
        <time>2022-04-23T16:29:13Z</time>
      </trkpt>
      <trkpt lat="48.2946" lon="6.79345">
        <ele>497.62</ele>
        <time>2022-04-23T16:29:28Z</time>
      </trkpt>
      <trkpt lat="48.29445" lon="6.79318">
        <ele>499.54</ele>
        <time>2022-04-23T16:29:43Z</time>
      </trkpt>
      <trkpt lat="48.29441" lon="6.79284">
        <ele>501.95</ele>
        <time>2022-04-23T16:31:02Z</time>
      </trkpt>
      <trkpt lat="48.29442" lon="6.79254">
        <ele>502.91</ele>
        <time>2022-04-23T16:31:13Z</time>
      </trkpt>
      <trkpt lat="48.29445" lon="6.79224">
        <ele>503.87</ele>
        <time>2022-04-23T16:31:22Z</time>
      </trkpt>
      <trkpt lat="48.2945" lon="6.79198">
        <ele>503.87</ele>
        <time>2022-04-23T16:31:29Z</time>
      </trkpt>
      <trkpt lat="48.29462" lon="6.79173">
        <ele>503.87</ele>
        <time>2022-04-23T16:31:36Z</time>
      </trkpt>
      <trkpt lat="48.29474" lon="6.7915">
        <ele>504.83</ele>
        <time>2022-04-23T16:31:45Z</time>
      </trkpt>
      <trkpt lat="48.29493" lon="6.79137">
        <ele>507.23</ele>
        <time>2022-04-23T16:31:54Z</time>
      </trkpt>
      <trkpt lat="48.29514" lon="6.79122">
        <ele>509.16</ele>
        <time>2022-04-23T16:32:05Z</time>
      </trkpt>
      <trkpt lat="48.2954" lon="6.79104">
        <ele>508.67</ele>
        <time>2022-04-23T16:32:19Z</time>
      </trkpt>
      <trkpt lat="48.29543" lon="6.79132">
        <ele>509.16</ele>
        <time>2022-04-23T16:32:28Z</time>
      </trkpt>
      <trkpt lat="48.29542" lon="6.7916">
        <ele>509.64</ele>
        <time>2022-04-23T16:32:35Z</time>
      </trkpt>
      <trkpt lat="48.29546" lon="6.79188">
        <ele>510.12</ele>
        <time>2022-04-23T16:32:42Z</time>
      </trkpt>
      <trkpt lat="48.29554" lon="6.79215">
        <ele>511.08</ele>
        <time>2022-04-23T16:32:49Z</time>
      </trkpt>
      <trkpt lat="48.29561" lon="6.79245">
        <ele>511.08</ele>
        <time>2022-04-23T16:32:57Z</time>
      </trkpt>
      <trkpt lat="48.29567" lon="6.79272">
        <ele>511.08</ele>
        <time>2022-04-23T16:33:04Z</time>
      </trkpt>
      <trkpt lat="48.29573" lon="6.79301">
        <ele>512.04</ele>
        <time>2022-04-23T16:33:12Z</time>
      </trkpt>
      <trkpt lat="48.29577" lon="6.79329">
        <ele>512.04</ele>
        <time>2022-04-23T16:33:20Z</time>
      </trkpt>
      <trkpt lat="48.2959" lon="6.79351">
        <ele>511.56</ele>
        <time>2022-04-23T16:33:27Z</time>
      </trkpt>
      <trkpt lat="48.29602" lon="6.79379">
        <ele>512.52</ele>
        <time>2022-04-23T16:33:34Z</time>
      </trkpt>
      <trkpt lat="48.29616" lon="6.79403">
        <ele>513</ele>
        <time>2022-04-23T16:33:41Z</time>
      </trkpt>
      <trkpt lat="48.29629" lon="6.79428">
        <ele>513.48</ele>
        <time>2022-04-23T16:33:49Z</time>
      </trkpt>
      <trkpt lat="48.29643" lon="6.79454">
        <ele>513.96</ele>
        <time>2022-04-23T16:33:56Z</time>
      </trkpt>
      <trkpt lat="48.29653" lon="6.79484">
        <ele>514.44</ele>
        <time>2022-04-23T16:34:04Z</time>
      </trkpt>
      <trkpt lat="48.2966" lon="6.79515">
        <ele>514.44</ele>
        <time>2022-04-23T16:34:13Z</time>
      </trkpt>
      <trkpt lat="48.29667" lon="6.79548">
        <ele>514.92</ele>
        <time>2022-04-23T16:34:20Z</time>
      </trkpt>
      <trkpt lat="48.29671" lon="6.79576">
        <ele>515.4</ele>
        <time>2022-04-23T16:34:25Z</time>
      </trkpt>
      <trkpt lat="48.29673" lon="6.79606">
        <ele>515.4</ele>
        <time>2022-04-23T16:34:30Z</time>
      </trkpt>
      <trkpt lat="48.29679" lon="6.79638">
        <ele>515.88</ele>
        <time>2022-04-23T16:34:35Z</time>
      </trkpt>
      <trkpt lat="48.29686" lon="6.79666">
        <ele>515.88</ele>
        <time>2022-04-23T16:34:40Z</time>
      </trkpt>
      <trkpt lat="48.29699" lon="6.79689">
        <ele>516.37</ele>
        <time>2022-04-23T16:34:45Z</time>
      </trkpt>
      <trkpt lat="48.29714" lon="6.79708">
        <ele>516.85</ele>
        <time>2022-04-23T16:34:50Z</time>
      </trkpt>
      <trkpt lat="48.29726" lon="6.7973">
        <ele>517.33</ele>
        <time>2022-04-23T16:34:55Z</time>
      </trkpt>
      <trkpt lat="48.29735" lon="6.79755">
        <ele>517.33</ele>
        <time>2022-04-23T16:35:00Z</time>
      </trkpt>
      <trkpt lat="48.29748" lon="6.79775">
        <ele>516.85</ele>
        <time>2022-04-23T16:35:05Z</time>
      </trkpt>
      <trkpt lat="48.29761" lon="6.79796">
        <ele>516.85</ele>
        <time>2022-04-23T16:35:10Z</time>
      </trkpt>
      <trkpt lat="48.29771" lon="6.7982">
        <ele>517.33</ele>
        <time>2022-04-23T16:35:15Z</time>
      </trkpt>
      <trkpt lat="48.29781" lon="6.79844">
        <ele>517.33</ele>
        <time>2022-04-23T16:35:20Z</time>
      </trkpt>
      <trkpt lat="48.2979" lon="6.79872">
        <ele>517.81</ele>
        <time>2022-04-23T16:35:26Z</time>
      </trkpt>
      <trkpt lat="48.29803" lon="6.79898">
        <ele>518.77</ele>
        <time>2022-04-23T16:35:32Z</time>
      </trkpt>
      <trkpt lat="48.29811" lon="6.79924">
        <ele>519.73</ele>
        <time>2022-04-23T16:35:38Z</time>
      </trkpt>
      <trkpt lat="48.29811" lon="6.79953">
        <ele>520.21</ele>
        <time>2022-04-23T16:35:45Z</time>
      </trkpt>
      <trkpt lat="48.29804" lon="6.79983">
        <ele>518.77</ele>
        <time>2022-04-23T16:35:51Z</time>
      </trkpt>
      <trkpt lat="48.29799" lon="6.80012">
        <ele>516.85</ele>
        <time>2022-04-23T16:35:55Z</time>
      </trkpt>
      <trkpt lat="48.29796" lon="6.80044">
        <ele>515.88</ele>
        <time>2022-04-23T16:35:59Z</time>
      </trkpt>
      <trkpt lat="48.29797" lon="6.80073">
        <ele>514.92</ele>
        <time>2022-04-23T16:36:02Z</time>
      </trkpt>
      <trkpt lat="48.29799" lon="6.80107">
        <ele>513</ele>
        <time>2022-04-23T16:36:06Z</time>
      </trkpt>
      <trkpt lat="48.29808" lon="6.80133">
        <ele>511.08</ele>
        <time>2022-04-23T16:36:09Z</time>
      </trkpt>
      <trkpt lat="48.29827" lon="6.80164">
        <ele>507.71</ele>
        <time>2022-04-23T16:36:12Z</time>
      </trkpt>
      <trkpt lat="48.29846" lon="6.80192">
        <ele>504.35</ele>
        <time>2022-04-23T16:36:15Z</time>
      </trkpt>
      <trkpt lat="48.29866" lon="6.80221">
        <ele>504.35</ele>
        <time>2022-04-23T16:36:18Z</time>
      </trkpt>
      <trkpt lat="48.29883" lon="6.80249">
        <ele>501.46</ele>
        <time>2022-04-23T16:36:21Z</time>
      </trkpt>
      <trkpt lat="48.29901" lon="6.80276">
        <ele>498.1</ele>
        <time>2022-04-23T16:36:24Z</time>
      </trkpt>
      <trkpt lat="48.2992" lon="6.80299">
        <ele>495.22</ele>
        <time>2022-04-23T16:36:27Z</time>
      </trkpt>
      <trkpt lat="48.2994" lon="6.80317">
        <ele>492.81</ele>
        <time>2022-04-23T16:36:30Z</time>
      </trkpt>
      <trkpt lat="48.29963" lon="6.80329">
        <ele>489.93</ele>
        <time>2022-04-23T16:36:33Z</time>
      </trkpt>
      <trkpt lat="48.29989" lon="6.80336">
        <ele>486.56</ele>
        <time>2022-04-23T16:36:36Z</time>
      </trkpt>
      <trkpt lat="48.30016" lon="6.8034">
        <ele>484.64</ele>
        <time>2022-04-23T16:36:39Z</time>
      </trkpt>
      <trkpt lat="48.30041" lon="6.80328">
        <ele>482.72</ele>
        <time>2022-04-23T16:36:42Z</time>
      </trkpt>
      <trkpt lat="48.30059" lon="6.803">
        <ele>480.8</ele>
        <time>2022-04-23T16:36:45Z</time>
      </trkpt>
      <trkpt lat="48.30068" lon="6.80276">
        <ele>478.87</ele>
        <time>2022-04-23T16:36:47Z</time>
      </trkpt>
      <trkpt lat="48.30078" lon="6.80237">
        <ele>476.95</ele>
        <time>2022-04-23T16:36:50Z</time>
      </trkpt>
      <trkpt lat="48.30085" lon="6.80211">
        <ele>474.07</ele>
        <time>2022-04-23T16:36:52Z</time>
      </trkpt>
      <trkpt lat="48.3009" lon="6.80181">
        <ele>471.66</ele>
        <time>2022-04-23T16:36:54Z</time>
      </trkpt>
      <trkpt lat="48.30096" lon="6.8015">
        <ele>470.22</ele>
        <time>2022-04-23T16:36:56Z</time>
      </trkpt>
      <trkpt lat="48.30101" lon="6.80119">
        <ele>468.3</ele>
        <time>2022-04-23T16:36:58Z</time>
      </trkpt>
      <trkpt lat="48.30106" lon="6.80089">
        <ele>466.38</ele>
        <time>2022-04-23T16:37:00Z</time>
      </trkpt>
      <trkpt lat="48.3011" lon="6.8006">
        <ele>464.93</ele>
        <time>2022-04-23T16:37:02Z</time>
      </trkpt>
      <trkpt lat="48.30114" lon="6.80031">
        <ele>462.53</ele>
        <time>2022-04-23T16:37:04Z</time>
      </trkpt>
      <trkpt lat="48.30119" lon="6.80001">
        <ele>461.09</ele>
        <time>2022-04-23T16:37:06Z</time>
      </trkpt>
      <trkpt lat="48.30122" lon="6.79963">
        <ele>459.17</ele>
        <time>2022-04-23T16:37:09Z</time>
      </trkpt>
      <trkpt lat="48.30121" lon="6.79927">
        <ele>456.76</ele>
        <time>2022-04-23T16:37:12Z</time>
      </trkpt>
      <trkpt lat="48.30117" lon="6.79896">
        <ele>453.4</ele>
        <time>2022-04-23T16:37:15Z</time>
      </trkpt>
      <trkpt lat="48.30112" lon="6.79865">
        <ele>451</ele>
        <time>2022-04-23T16:37:18Z</time>
      </trkpt>
      <trkpt lat="48.30099" lon="6.79837">
        <ele>449.07</ele>
        <time>2022-04-23T16:37:21Z</time>
      </trkpt>
      <trkpt lat="48.30083" lon="6.79809">
        <ele>446.19</ele>
        <time>2022-04-23T16:37:24Z</time>
      </trkpt>
      <trkpt lat="48.30067" lon="6.79781">
        <ele>443.31</ele>
        <time>2022-04-23T16:37:27Z</time>
      </trkpt>
      <trkpt lat="48.30049" lon="6.7975">
        <ele>439.94</ele>
        <time>2022-04-23T16:37:30Z</time>
      </trkpt>
      <trkpt lat="48.30042" lon="6.79732">
        <ele>437.06</ele>
        <time>2022-04-23T16:37:34Z</time>
      </trkpt>
      <trkpt lat="48.30056" lon="6.7974">
        <ele>435.13</ele>
        <time>2022-04-23T16:37:37Z</time>
      </trkpt>
      <trkpt lat="48.3007" lon="6.79753">
        <ele>432.73</ele>
        <time>2022-04-23T16:37:40Z</time>
      </trkpt>
      <trkpt lat="48.30087" lon="6.79762">
        <ele>430.33</ele>
        <time>2022-04-23T16:37:43Z</time>
      </trkpt>
      <trkpt lat="48.30107" lon="6.79765">
        <ele>427.92</ele>
        <time>2022-04-23T16:37:46Z</time>
      </trkpt>
      <trkpt lat="48.30126" lon="6.79758">
        <ele>425.52</ele>
        <time>2022-04-23T16:37:49Z</time>
      </trkpt>
      <trkpt lat="48.30143" lon="6.79752">
        <ele>423.12</ele>
        <time>2022-04-23T16:37:53Z</time>
      </trkpt>
      <trkpt lat="48.3014" lon="6.79754">
        <ele>422.64</ele>
        <time>2022-04-23T16:38:12Z</time>
      </trkpt>
    </trkseg>
  </trk>
</gpx>